sensor_id;sensor_type;location;lat;lon;timestamp;temperature;humidity
35129;DHT22;21301;43.626;10.580;2022-11-22T00:01:18;10.90;99.90
35129;DHT22;21301;43.626;10.580;2022-11-22T00:03:44;10.90;99.90
35129;DHT22;21301;43.626;10.580;2022-11-22T00:06:10;10.90;99.90
35129;DHT22;21301;43.626;10.580;2022-11-22T00:08:35;10.90;99.90
35129;DHT22;21301;43.626;10.580;2022-11-22T00:11:01;10.90;99.90
35129;DHT22;21301;43.626;10.580;2022-11-22T00:13:27;10.90;99.90
35129;DHT22;21301;43.626;10.580;2022-11-22T00:15:58;10.90;99.90
35129;DHT22;21301;43.626;10.580;2022-11-22T00:18:24;10.90;99.90
35129;DHT22;21301;43.626;10.580;2022-11-22T00:20:49;10.90;99.90
35129;DHT22;21301;43.626;10.580;2022-11-22T00:23:15;10.90;99.90
35129;DHT22;21301;43.626;10.580;2022-11-22T00:25:41;10.90;99.90
35129;DHT22;21301;43.626;10.580;2022-11-22T00:28:07;10.90;99.90
35129;DHT22;21301;43.626;10.580;2022-11-22T00:30:32;10.80;99.90
35129;DHT22;21301;43.626;10.580;2022-11-22T00:32:58;10.90;99.90
35129;DHT22;21301;43.626;10.580;2022-11-22T00:35:24;10.80;99.90
35129;DHT22;21301;43.626;10.580;2022-11-22T00:37:49;10.90;99.90
35129;DHT22;21301;43.626;10.580;2022-11-22T00:40:15;10.80;99.90
35129;DHT22;21301;43.626;10.580;2022-11-22T00:42:41;10.80;99.90
35129;DHT22;21301;43.626;10.580;2022-11-22T00:45:07;10.80;99.90
35129;DHT22;21301;43.626;10.580;2022-11-22T00:47:33;10.90;99.90
35129;DHT22;21301;43.626;10.580;2022-11-22T00:49:58;10.90;99.90
35129;DHT22;21301;43.626;10.580;2022-11-22T00:52:24;10.90;99.90
35129;DHT22;21301;43.626;10.580;2022-11-22T00:54:50;10.90;99.90
35129;DHT22;21301;43.626;10.580;2022-11-22T00:57:16;10.80;99.90
35129;DHT22;21301;43.626;10.580;2022-11-22T00:59:41;10.90;99.90
35129;DHT22;21301;43.626;10.580;2022-11-22T01:02:07;10.90;99.90
35129;DHT22;21301;43.626;10.580;2022-11-22T01:04:33;10.90;99.90
35129;DHT22;21301;43.626;10.580;2022-11-22T01:06:59;10.90;99.90
35129;DHT22;21301;43.626;10.580;2022-11-22T01:09:24;10.90;99.90
35129;DHT22;21301;43.626;10.580;2022-11-22T01:11:50;10.90;99.90
35129;DHT22;21301;43.626;10.580;2022-11-22T01:14:17;11.00;99.90
35129;DHT22;21301;43.626;10.580;2022-11-22T01:16:43;11.00;99.90
35129;DHT22;21301;43.626;10.580;2022-11-22T01:19:09;11.00;99.90
35129;DHT22;21301;43.626;10.580;2022-11-22T01:21:35;11.00;99.90
35129;DHT22;21301;43.626;10.580;2022-11-22T01:24:01;11.00;99.90
35129;DHT22;21301;43.626;10.580;2022-11-22T01:26:27;11.00;99.90
35129;DHT22;21301;43.626;10.580;2022-11-22T01:28:52;11.00;99.90
35129;DHT22;21301;43.626;10.580;2022-11-22T01:31:18;11.00;99.90
35129;DHT22;21301;43.626;10.580;2022-11-22T01:33:44;11.00;99.90
35129;DHT22;21301;43.626;10.580;2022-11-22T01:36:10;11.00;99.90
35129;DHT22;21301;43.626;10.580;2022-11-22T01:38:35;11.00;99.90
35129;DHT22;21301;43.626;10.580;2022-11-22T01:41:01;11.00;99.90
35129;DHT22;21301;43.626;10.580;2022-11-22T01:43:27;11.10;99.90
35129;DHT22;21301;43.626;10.580;2022-11-22T01:46:01;11.10;99.90
35129;DHT22;21301;43.626;10.580;2022-11-22T01:51:01;11.10;99.90
35129;DHT22;21301;43.626;10.580;2022-11-22T01:53:32;11.10;99.90
35129;DHT22;21301;43.626;10.580;2022-11-22T01:56:01;11.10;99.90
35129;DHT22;21301;43.626;10.580;2022-11-22T01:58:31;11.20;99.90
35129;DHT22;21301;43.626;10.580;2022-11-22T02:00:57;11.20;99.90
35129;DHT22;21301;43.626;10.580;2022-11-22T02:03:24;11.20;99.90
35129;DHT22;21301;43.626;10.580;2022-11-22T02:05:51;11.20;99.90
35129;DHT22;21301;43.626;10.580;2022-11-22T02:08:25;11.20;99.90
35129;DHT22;21301;43.626;10.580;2022-11-22T02:10:53;11.20;99.90
35129;DHT22;21301;43.626;10.580;2022-11-22T02:13:21;11.20;99.90
35129;DHT22;21301;43.626;10.580;2022-11-22T02:15:50;11.20;99.90
35129;DHT22;21301;43.626;10.580;2022-11-22T02:18:16;11.10;99.90
35129;DHT22;21301;43.626;10.580;2022-11-22T02:20:42;11.10;99.90
35129;DHT22;21301;43.626;10.580;2022-11-22T02:25:57;11.10;99.90
35129;DHT22;21301;43.626;10.580;2022-11-22T02:28:24;11.10;99.90
35129;DHT22;21301;43.626;10.580;2022-11-22T02:30:50;11.10;99.90
35129;DHT22;21301;43.626;10.580;2022-11-22T02:33:16;11.20;99.90
35129;DHT22;21301;43.626;10.580;2022-11-22T02:35:42;11.20;99.90
35129;DHT22;21301;43.626;10.580;2022-11-22T02:38:15;11.20;99.90
35129;DHT22;21301;43.626;10.580;2022-11-22T02:41:04;11.20;99.90
35129;DHT22;21301;43.626;10.580;2022-11-22T02:43:45;11.20;99.90
35129;DHT22;21301;43.626;10.580;2022-11-22T02:46:14;11.30;99.90
35129;DHT22;21301;43.626;10.580;2022-11-22T02:48:48;11.30;99.90
35129;DHT22;21301;43.626;10.580;2022-11-22T02:51:15;11.30;99.90
35129;DHT22;21301;43.626;10.580;2022-11-22T02:53:42;11.30;99.90
35129;DHT22;21301;43.626;10.580;2022-11-22T02:56:08;11.20;99.90
35129;DHT22;21301;43.626;10.580;2022-11-22T02:58:34;11.30;99.90
35129;DHT22;21301;43.626;10.580;2022-11-22T03:01:00;11.20;99.90
35129;DHT22;21301;43.626;10.580;2022-11-22T03:03:25;11.30;99.90
35129;DHT22;21301;43.626;10.580;2022-11-22T03:05:51;11.30;99.90
35129;DHT22;21301;43.626;10.580;2022-11-22T03:08:17;11.30;99.90
35129;DHT22;21301;43.626;10.580;2022-11-22T03:10:42;11.30;99.90
35129;DHT22;21301;43.626;10.580;2022-11-22T03:13:08;11.30;99.90
35129;DHT22;21301;43.626;10.580;2022-11-22T03:15:34;11.40;99.90
35129;DHT22;21301;43.626;10.580;2022-11-22T03:18:01;11.40;99.90
35129;DHT22;21301;43.626;10.580;2022-11-22T03:20:28;11.40;99.90
35129;DHT22;21301;43.626;10.580;2022-11-22T03:22:54;11.40;99.90
35129;DHT22;21301;43.626;10.580;2022-11-22T03:25:20;11.40;99.90
35129;DHT22;21301;43.626;10.580;2022-11-22T03:27:47;11.50;99.90
35129;DHT22;21301;43.626;10.580;2022-11-22T03:30:13;11.50;99.90
35129;DHT22;21301;43.626;10.580;2022-11-22T03:32:39;11.50;99.90
35129;DHT22;21301;43.626;10.580;2022-11-22T03:35:05;11.50;99.90
35129;DHT22;21301;43.626;10.580;2022-11-22T03:37:31;11.50;99.90
35129;DHT22;21301;43.626;10.580;2022-11-22T03:39:57;11.50;99.90
35129;DHT22;21301;43.626;10.580;2022-11-22T03:42:22;11.50;99.90
35129;DHT22;21301;43.626;10.580;2022-11-22T03:44:48;11.50;99.90
35129;DHT22;21301;43.626;10.580;2022-11-22T03:47:14;11.60;99.90
35129;DHT22;21301;43.626;10.580;2022-11-22T03:49:40;11.60;99.90
35129;DHT22;21301;43.626;10.580;2022-11-22T03:52:07;11.60;99.90
35129;DHT22;21301;43.626;10.580;2022-11-22T03:54:32;11.60;99.90
35129;DHT22;21301;43.626;10.580;2022-11-22T03:56:58;11.60;99.90
35129;DHT22;21301;43.626;10.580;2022-11-22T03:59:24;11.60;99.90
35129;DHT22;21301;43.626;10.580;2022-11-22T04:01:50;11.60;99.90
35129;DHT22;21301;43.626;10.580;2022-11-22T04:04:16;11.60;99.90
35129;DHT22;21301;43.626;10.580;2022-11-22T04:06:41;11.60;99.90
35129;DHT22;21301;43.626;10.580;2022-11-22T04:09:07;11.60;99.90
35129;DHT22;21301;43.626;10.580;2022-11-22T04:11:33;11.60;99.90
35129;DHT22;21301;43.626;10.580;2022-11-22T04:13:59;11.60;99.90
35129;DHT22;21301;43.626;10.580;2022-11-22T04:16:44;11.60;99.90
35129;DHT22;21301;43.626;10.580;2022-11-22T04:19:09;11.60;99.90
35129;DHT22;21301;43.626;10.580;2022-11-22T04:21:35;11.60;99.90
35129;DHT22;21301;43.626;10.580;2022-11-22T04:24:05;11.60;99.90
35129;DHT22;21301;43.626;10.580;2022-11-22T04:26:50;11.60;99.90
35129;DHT22;21301;43.626;10.580;2022-11-22T04:29:17;11.60;99.90
35129;DHT22;21301;43.626;10.580;2022-11-22T04:31:43;11.60;99.90
35129;DHT22;21301;43.626;10.580;2022-11-22T04:34:27;11.60;99.90
35129;DHT22;21301;43.626;10.580;2022-11-22T04:36:53;11.60;99.90
35129;DHT22;21301;43.626;10.580;2022-11-22T04:39:19;11.60;99.90
35129;DHT22;21301;43.626;10.580;2022-11-22T04:41:44;11.60;99.90
35129;DHT22;21301;43.626;10.580;2022-11-22T04:44:10;11.60;99.90
35129;DHT22;21301;43.626;10.580;2022-11-22T04:46:55;11.60;99.90
35129;DHT22;21301;43.626;10.580;2022-11-22T04:49:21;11.60;99.90
35129;DHT22;21301;43.626;10.580;2022-11-22T04:51:46;11.60;99.90
35129;DHT22;21301;43.626;10.580;2022-11-22T04:54:41;11.60;99.90
35129;DHT22;21301;43.626;10.580;2022-11-22T04:57:07;11.60;99.90
35129;DHT22;21301;43.626;10.580;2022-11-22T04:59:33;11.60;99.90
35129;DHT22;21301;43.626;10.580;2022-11-22T05:01:58;11.60;99.90
35129;DHT22;21301;43.626;10.580;2022-11-22T05:04:24;11.60;99.90
35129;DHT22;21301;43.626;10.580;2022-11-22T05:06:50;11.60;99.90
35129;DHT22;21301;43.626;10.580;2022-11-22T05:09:16;11.60;99.90
35129;DHT22;21301;43.626;10.580;2022-11-22T05:11:41;11.60;99.90
35129;DHT22;21301;43.626;10.580;2022-11-22T05:14:09;11.60;99.90
35129;DHT22;21301;43.626;10.580;2022-11-22T05:16:35;11.60;99.90
35129;DHT22;21301;43.626;10.580;2022-11-22T05:19:00;11.60;99.90
35129;DHT22;21301;43.626;10.580;2022-11-22T05:21:27;11.60;99.90
35129;DHT22;21301;43.626;10.580;2022-11-22T05:23:53;11.60;99.90
35129;DHT22;21301;43.626;10.580;2022-11-22T05:26:30;11.60;99.90
35129;DHT22;21301;43.626;10.580;2022-11-22T05:28:57;11.60;99.90
35129;DHT22;21301;43.626;10.580;2022-11-22T05:31:24;11.60;99.90
35129;DHT22;21301;43.626;10.580;2022-11-22T05:33:53;11.60;99.90
35129;DHT22;21301;43.626;10.580;2022-11-22T05:36:20;11.60;99.90
35129;DHT22;21301;43.626;10.580;2022-11-22T05:38:46;11.60;99.90
35129;DHT22;21301;43.626;10.580;2022-11-22T05:41:13;11.60;99.90
35129;DHT22;21301;43.626;10.580;2022-11-22T05:43:39;11.60;99.90
35129;DHT22;21301;43.626;10.580;2022-11-22T05:48:41;11.70;99.90
35129;DHT22;21301;43.626;10.580;2022-11-22T05:51:16;11.60;99.90
35129;DHT22;21301;43.626;10.580;2022-11-22T05:53:43;11.60;99.90
35129;DHT22;21301;43.626;10.580;2022-11-22T05:56:14;11.60;99.90
35129;DHT22;21301;43.626;10.580;2022-11-22T05:58:40;11.50;99.90
35129;DHT22;21301;43.626;10.580;2022-11-22T06:01:09;11.60;99.90
35129;DHT22;21301;43.626;10.580;2022-11-22T06:03:36;11.50;99.90
35129;DHT22;21301;43.626;10.580;2022-11-22T06:06:02;11.50;99.90
35129;DHT22;21301;43.626;10.580;2022-11-22T06:08:30;11.50;99.90
35129;DHT22;21301;43.626;10.580;2022-11-22T06:11:03;11.60;99.90
35129;DHT22;21301;43.626;10.580;2022-11-22T06:13:33;11.60;99.90
35129;DHT22;21301;43.626;10.580;2022-11-22T06:15:59;11.60;99.90
35129;DHT22;21301;43.626;10.580;2022-11-22T06:18:25;11.60;99.90
35129;DHT22;21301;43.626;10.580;2022-11-22T06:20:56;11.50;99.90
35129;DHT22;21301;43.626;10.580;2022-11-22T06:23:22;11.50;99.90
35129;DHT22;21301;43.626;10.580;2022-11-22T06:25:58;11.60;99.90
35129;DHT22;21301;43.626;10.580;2022-11-22T06:28:25;11.50;99.90
35129;DHT22;21301;43.626;10.580;2022-11-22T06:30:51;11.50;99.90
35129;DHT22;21301;43.626;10.580;2022-11-22T06:33:17;11.50;99.90
35129;DHT22;21301;43.626;10.580;2022-11-22T06:35:43;11.50;99.90
35129;DHT22;21301;43.626;10.580;2022-11-22T06:38:08;11.40;99.90
35129;DHT22;21301;43.626;10.580;2022-11-22T06:40:34;11.40;99.90
35129;DHT22;21301;43.626;10.580;2022-11-22T06:43:00;11.40;99.90
35129;DHT22;21301;43.626;10.580;2022-11-22T06:45:25;11.40;99.90
35129;DHT22;21301;43.626;10.580;2022-11-22T06:47:51;11.40;99.90
35129;DHT22;21301;43.626;10.580;2022-11-22T06:50:17;11.50;99.90
35129;DHT22;21301;43.626;10.580;2022-11-22T06:52:49;11.50;99.90
35129;DHT22;21301;43.626;10.580;2022-11-22T06:55:14;11.50;99.90
35129;DHT22;21301;43.626;10.580;2022-11-22T06:57:40;11.50;99.90
35129;DHT22;21301;43.626;10.580;2022-11-22T07:00:06;11.50;99.90
35129;DHT22;21301;43.626;10.580;2022-11-22T07:02:33;11.50;99.90
35129;DHT22;21301;43.626;10.580;2022-11-22T07:04:58;11.50;99.90
35129;DHT22;21301;43.626;10.580;2022-11-22T07:07:24;11.50;99.90
35129;DHT22;21301;43.626;10.580;2022-11-22T07:09:50;11.50;99.90
35129;DHT22;21301;43.626;10.580;2022-11-22T07:12:16;11.40;99.90
35129;DHT22;21301;43.626;10.580;2022-11-22T07:14:41;11.40;99.90
35129;DHT22;21301;43.626;10.580;2022-11-22T07:17:07;11.40;99.90
35129;DHT22;21301;43.626;10.580;2022-11-22T07:19:33;11.50;99.90
35129;DHT22;21301;43.626;10.580;2022-11-22T07:21:59;11.50;99.90
35129;DHT22;21301;43.626;10.580;2022-11-22T07:24:24;11.50;99.90
35129;DHT22;21301;43.626;10.580;2022-11-22T07:26:51;11.60;99.90
35129;DHT22;21301;43.626;10.580;2022-11-22T07:29:17;11.60;99.90
35129;DHT22;21301;43.626;10.580;2022-11-22T07:31:44;11.60;99.90
35129;DHT22;21301;43.626;10.580;2022-11-22T07:34:10;11.60;99.90
35129;DHT22;21301;43.626;10.580;2022-11-22T07:36:36;11.70;99.90
35129;DHT22;21301;43.626;10.580;2022-11-22T07:39:02;11.60;99.90
35129;DHT22;21301;43.626;10.580;2022-11-22T07:41:28;11.70;99.90
35129;DHT22;21301;43.626;10.580;2022-11-22T07:43:54;11.70;99.90
35129;DHT22;21301;43.626;10.580;2022-11-22T07:46:21;11.70;99.90
35129;DHT22;21301;43.626;10.580;2022-11-22T07:48:48;11.80;99.90
35129;DHT22;21301;43.626;10.580;2022-11-22T07:51:14;11.80;99.90
35129;DHT22;21301;43.626;10.580;2022-11-22T07:53:40;11.90;99.90
35129;DHT22;21301;43.626;10.580;2022-11-22T07:56:06;11.90;99.90
35129;DHT22;21301;43.626;10.580;2022-11-22T07:58:33;12.00;99.90
35129;DHT22;21301;43.626;10.580;2022-11-22T08:01:07;12.00;99.90
35129;DHT22;21301;43.626;10.580;2022-11-22T08:03:35;11.90;99.90
35129;DHT22;21301;43.626;10.580;2022-11-22T08:06:02;11.80;99.90
35129;DHT22;21301;43.626;10.580;2022-11-22T08:08:28;11.80;99.90
35129;DHT22;21301;43.626;10.580;2022-11-22T08:10:54;11.90;99.90
35129;DHT22;21301;43.626;10.580;2022-11-22T08:13:20;11.90;99.90
35129;DHT22;21301;43.626;10.580;2022-11-22T08:15:46;11.60;99.90
35129;DHT22;21301;43.626;10.580;2022-11-22T08:18:14;11.60;99.90
35129;DHT22;21301;43.626;10.580;2022-11-22T08:20:40;11.60;99.90
35129;DHT22;21301;43.626;10.580;2022-11-22T08:23:06;11.50;99.90
35129;DHT22;21301;43.626;10.580;2022-11-22T08:25:32;11.50;99.90
35129;DHT22;21301;43.626;10.580;2022-11-22T08:27:58;11.40;99.90
35129;DHT22;21301;43.626;10.580;2022-11-22T08:30:25;11.40;99.90
35129;DHT22;21301;43.626;10.580;2022-11-22T08:32:53;11.30;99.90
35129;DHT22;21301;43.626;10.580;2022-11-22T08:35:19;11.30;99.90
35129;DHT22;21301;43.626;10.580;2022-11-22T08:37:45;11.40;99.90
35129;DHT22;21301;43.626;10.580;2022-11-22T08:40:12;11.40;99.90
35129;DHT22;21301;43.626;10.580;2022-11-22T08:42:37;11.40;99.90
35129;DHT22;21301;43.626;10.580;2022-11-22T08:45:05;11.40;99.90
35129;DHT22;21301;43.626;10.580;2022-11-22T08:47:30;11.40;99.90
35129;DHT22;21301;43.626;10.580;2022-11-22T08:49:57;11.50;99.90
35129;DHT22;21301;43.626;10.580;2022-11-22T08:52:23;11.50;99.90
35129;DHT22;21301;43.626;10.580;2022-11-22T08:54:49;11.50;99.90
35129;DHT22;21301;43.626;10.580;2022-11-22T08:57:15;11.60;99.90
35129;DHT22;21301;43.626;10.580;2022-11-22T08:59:41;11.80;99.90
35129;DHT22;21301;43.626;10.580;2022-11-22T09:02:07;12.00;99.90
35129;DHT22;21301;43.626;10.580;2022-11-22T09:04:33;12.10;99.90
35129;DHT22;21301;43.626;10.580;2022-11-22T09:06:59;12.00;99.90
35129;DHT22;21301;43.626;10.580;2022-11-22T09:09:25;12.00;99.90
35129;DHT22;21301;43.626;10.580;2022-11-22T09:11:51;11.80;99.90
35129;DHT22;21301;43.626;10.580;2022-11-22T09:14:17;11.80;99.90
35129;DHT22;21301;43.626;10.580;2022-11-22T09:16:43;11.70;99.90
35129;DHT22;21301;43.626;10.580;2022-11-22T09:19:08;11.60;99.90
35129;DHT22;21301;43.626;10.580;2022-11-22T09:21:34;11.50;99.90
35129;DHT22;21301;43.626;10.580;2022-11-22T09:24:00;11.50;99.90
35129;DHT22;21301;43.626;10.580;2022-11-22T09:26:26;11.40;99.90
35129;DHT22;21301;43.626;10.580;2022-11-22T09:28:52;11.20;99.90
35129;DHT22;21301;43.626;10.580;2022-11-22T09:31:20;11.30;99.90
35129;DHT22;21301;43.626;10.580;2022-11-22T09:33:46;11.30;99.90
35129;DHT22;21301;43.626;10.580;2022-11-22T09:36:24;11.10;99.90
35129;DHT22;21301;43.626;10.580;2022-11-22T09:38:53;10.90;99.90
35129;DHT22;21301;43.626;10.580;2022-11-22T09:46:55;10.90;99.90
35129;DHT22;21301;43.626;10.580;2022-11-22T09:52:28;11.00;99.90
35129;DHT22;21301;43.626;10.580;2022-11-22T09:54:59;11.10;99.90
35129;DHT22;21301;43.626;10.580;2022-11-22T09:57:42;11.00;99.90
35129;DHT22;21301;43.626;10.580;2022-11-22T10:00:21;11.00;99.90
35129;DHT22;21301;43.626;10.580;2022-11-22T10:02:53;11.10;99.90
35129;DHT22;21301;43.626;10.580;2022-11-22T10:05:33;10.90;99.90
35129;DHT22;21301;43.626;10.580;2022-11-22T10:08:18;10.70;99.90
35129;DHT22;21301;43.626;10.580;2022-11-22T10:10:48;10.70;99.90
35129;DHT22;21301;43.626;10.580;2022-11-22T10:13:51;10.70;99.90
35129;DHT22;21301;43.626;10.580;2022-11-22T10:16:15;10.90;99.90
35129;DHT22;21301;43.626;10.580;2022-11-22T10:21:12;10.90;99.90
35129;DHT22;21301;43.626;10.580;2022-11-22T10:23:41;10.90;99.90
35129;DHT22;21301;43.626;10.580;2022-11-22T10:26:31;10.90;99.90
35129;DHT22;21301;43.626;10.580;2022-11-22T10:34:38;11.20;99.90
35129;DHT22;21301;43.626;10.580;2022-11-22T10:47:37;11.30;99.90
35129;DHT22;21301;43.626;10.580;2022-11-22T10:50:17;11.30;99.90
35129;DHT22;21301;43.626;10.580;2022-11-22T10:56:12;11.60;99.90
35129;DHT22;21301;43.626;10.580;2022-11-22T11:03:51;11.40;99.90
35129;DHT22;21301;43.626;10.580;2022-11-22T11:06:22;11.60;99.90
35129;DHT22;21301;43.626;10.580;2022-11-22T11:08:54;11.10;99.90
35129;DHT22;21301;43.626;10.580;2022-11-22T11:11:23;10.80;99.90
35129;DHT22;21301;43.626;10.580;2022-11-22T11:13:53;10.70;99.90
35129;DHT22;21301;43.626;10.580;2022-11-22T11:16:22;10.60;99.90
35129;DHT22;21301;43.626;10.580;2022-11-22T11:21:21;10.80;99.90
35129;DHT22;21301;43.626;10.580;2022-11-22T11:23:47;11.10;99.90
35129;DHT22;21301;43.626;10.580;2022-11-22T11:31:50;11.40;99.90
35129;DHT22;21301;43.626;10.580;2022-11-22T11:34:26;11.60;99.90
35129;DHT22;21301;43.626;10.580;2022-11-22T11:36:55;11.70;99.90
35129;DHT22;21301;43.626;10.580;2022-11-22T11:39:34;11.80;99.90
35129;DHT22;21301;43.626;10.580;2022-11-22T11:42:03;11.70;99.90
35129;DHT22;21301;43.626;10.580;2022-11-22T11:44:44;11.90;99.90
35129;DHT22;21301;43.626;10.580;2022-11-22T11:47:17;11.60;99.90
35129;DHT22;21301;43.626;10.580;2022-11-22T11:49:49;11.40;99.90
35129;DHT22;21301;43.626;10.580;2022-11-22T11:52:21;11.60;99.90
35129;DHT22;21301;43.626;10.580;2022-11-22T11:54:54;11.40;99.90
35129;DHT22;21301;43.626;10.580;2022-11-22T11:57:28;11.20;99.90
35129;DHT22;21301;43.626;10.580;2022-11-22T11:59:59;11.00;99.90
35129;DHT22;21301;43.626;10.580;2022-11-22T12:02:38;11.10;99.90
35129;DHT22;21301;43.626;10.580;2022-11-22T12:18:27;11.30;99.90
35129;DHT22;21301;43.626;10.580;2022-11-22T12:21:45;11.10;99.90
35129;DHT22;21301;43.626;10.580;2022-11-22T12:26:39;11.30;99.90
35129;DHT22;21301;43.626;10.580;2022-11-22T12:29:05;11.40;99.90
35129;DHT22;21301;43.626;10.580;2022-11-22T12:32:01;11.40;99.90
35129;DHT22;21301;43.626;10.580;2022-11-22T12:34:29;11.60;99.90
35129;DHT22;21301;43.626;10.580;2022-11-22T12:37:11;11.50;99.90
35129;DHT22;21301;43.626;10.580;2022-11-22T12:39:41;11.40;99.90
35129;DHT22;21301;43.626;10.580;2022-11-22T12:42:20;11.30;99.90
35129;DHT22;21301;43.626;10.580;2022-11-22T12:44:52;11.20;99.90
35129;DHT22;21301;43.626;10.580;2022-11-22T12:47:22;11.10;99.90
35129;DHT22;21301;43.626;10.580;2022-11-22T12:49:51;11.00;99.90
35129;DHT22;21301;43.626;10.580;2022-11-22T12:52:27;11.00;99.90
35129;DHT22;21301;43.626;10.580;2022-11-22T12:55:25;10.90;99.90
35129;DHT22;21301;43.626;10.580;2022-11-22T13:00:43;11.10;99.90
35129;DHT22;21301;43.626;10.580;2022-11-22T13:03:16;11.10;99.90
35129;DHT22;21301;43.626;10.580;2022-11-22T13:05:50;11.00;99.90
35129;DHT22;21301;43.626;10.580;2022-11-22T13:13:46;10.90;99.90
35129;DHT22;21301;43.626;10.580;2022-11-22T13:16:12;10.90;99.90
35129;DHT22;21301;43.626;10.580;2022-11-22T13:18:50;11.00;99.90
35129;DHT22;21301;43.626;10.580;2022-11-22T13:26:50;11.20;99.90
35129;DHT22;21301;43.626;10.580;2022-11-22T13:29:22;11.20;99.90
35129;DHT22;21301;43.626;10.580;2022-11-22T13:32:19;11.30;99.90
35129;DHT22;21301;43.626;10.580;2022-11-22T13:37:46;11.30;99.90
35129;DHT22;21301;43.626;10.580;2022-11-22T13:40:23;11.30;99.90
35129;DHT22;21301;43.626;10.580;2022-11-22T13:46:41;11.30;99.90
35129;DHT22;21301;43.626;10.580;2022-11-22T14:00:33;11.20;99.90
35129;DHT22;21301;43.626;10.580;2022-11-22T14:03:21;11.30;99.90
35129;DHT22;21301;43.626;10.580;2022-11-22T14:05:53;11.20;99.90
35129;DHT22;21301;43.626;10.580;2022-11-22T14:08:29;11.10;99.90
35129;DHT22;21301;43.626;10.580;2022-11-22T14:18:53;11.00;99.90
35129;DHT22;21301;43.626;10.580;2022-11-22T14:21:45;11.00;99.90
35129;DHT22;21301;43.626;10.580;2022-11-22T14:27:05;10.90;99.90
35129;DHT22;21301;43.626;10.580;2022-11-22T14:32:17;10.60;99.90
35129;DHT22;21301;43.626;10.580;2022-11-22T14:37:47;10.90;99.90
35129;DHT22;21301;43.626;10.580;2022-11-22T14:40:41;10.90;99.90
35129;DHT22;21301;43.626;10.580;2022-11-22T14:45:46;10.90;99.90
35129;DHT22;21301;43.626;10.580;2022-11-22T14:48:23;10.80;99.90
35129;DHT22;21301;43.626;10.580;2022-11-22T14:53:44;10.70;99.90
35129;DHT22;21301;43.626;10.580;2022-11-22T14:56:28;10.70;99.90
35129;DHT22;21301;43.626;10.580;2022-11-22T15:12:39;10.30;99.90
35129;DHT22;21301;43.626;10.580;2022-11-22T15:17:37;10.20;99.90
35129;DHT22;21301;43.626;10.580;2022-11-22T15:20:27;10.10;99.90
35129;DHT22;21301;43.626;10.580;2022-11-22T15:22:50;10.10;99.90
35129;DHT22;21301;43.626;10.580;2022-11-22T15:25:18;10.20;99.90
35129;DHT22;21301;43.626;10.580;2022-11-22T15:27:43;10.10;99.90
35129;DHT22;21301;43.626;10.580;2022-11-22T15:30:18;10.20;99.90
35129;DHT22;21301;43.626;10.580;2022-11-22T15:32:50;10.10;99.90
35129;DHT22;21301;43.626;10.580;2022-11-22T15:35:29;10.10;99.90
35129;DHT22;21301;43.626;10.580;2022-11-22T15:38:07;10.10;99.90
35129;DHT22;21301;43.626;10.580;2022-11-22T15:40:36;10.00;99.90
35129;DHT22;21301;43.626;10.580;2022-11-22T15:43:04;10.00;99.90
35129;DHT22;21301;43.626;10.580;2022-11-22T15:45:33;10.00;99.90
35129;DHT22;21301;43.626;10.580;2022-11-22T15:48:06;10.00;99.90
35129;DHT22;21301;43.626;10.580;2022-11-22T15:50:33;10.00;99.90
35129;DHT22;21301;43.626;10.580;2022-11-22T15:53:20;9.90;99.90
35129;DHT22;21301;43.626;10.580;2022-11-22T15:56:21;10.00;99.90
35129;DHT22;21301;43.626;10.580;2022-11-22T15:58:54;9.90;99.90
35129;DHT22;21301;43.626;10.580;2022-11-22T16:01:20;9.90;99.90
35129;DHT22;21301;43.626;10.580;2022-11-22T16:03:55;9.90;99.90
35129;DHT22;21301;43.626;10.580;2022-11-22T16:06:27;9.90;99.90
35129;DHT22;21301;43.626;10.580;2022-11-22T16:08:58;10.00;99.90
35129;DHT22;21301;43.626;10.580;2022-11-22T16:11:38;10.00;99.90
35129;DHT22;21301;43.626;10.580;2022-11-22T16:17:36;10.00;99.90
35129;DHT22;21301;43.626;10.580;2022-11-22T16:23:10;10.00;99.90
35129;DHT22;21301;43.626;10.580;2022-11-22T16:25:39;9.90;99.90
35129;DHT22;21301;43.626;10.580;2022-11-22T16:28:33;9.90;99.90
35129;DHT22;21301;43.626;10.580;2022-11-22T16:31:05;9.90;99.90
35129;DHT22;21301;43.626;10.580;2022-11-22T16:33:31;9.90;99.90
35129;DHT22;21301;43.626;10.580;2022-11-22T16:36:01;10.00;99.90
35129;DHT22;21301;43.626;10.580;2022-11-22T16:38:27;10.00;99.90
35129;DHT22;21301;43.626;10.580;2022-11-22T16:40:56;10.00;99.90
35129;DHT22;21301;43.626;10.580;2022-11-22T16:43:23;10.00;99.90
35129;DHT22;21301;43.626;10.580;2022-11-22T16:45:50;10.10;99.90
35129;DHT22;21301;43.626;10.580;2022-11-22T16:48:19;10.10;99.90
35129;DHT22;21301;43.626;10.580;2022-11-22T16:50:48;10.20;99.90
35129;DHT22;21301;43.626;10.580;2022-11-22T16:53:17;10.30;99.90
35129;DHT22;21301;43.626;10.580;2022-11-22T16:55:43;10.20;99.90
35129;DHT22;21301;43.626;10.580;2022-11-22T16:58:12;10.30;99.90
35129;DHT22;21301;43.626;10.580;2022-11-22T17:00:39;10.30;99.90
35129;DHT22;21301;43.626;10.580;2022-11-22T17:03:07;10.30;99.90
35129;DHT22;21301;43.626;10.580;2022-11-22T17:05:33;10.50;99.90
35129;DHT22;21301;43.626;10.580;2022-11-22T17:07:58;10.30;99.90
35129;DHT22;21301;43.626;10.580;2022-11-22T17:10:24;10.40;99.90
35129;DHT22;21301;43.626;10.580;2022-11-22T17:12:50;10.40;99.90
35129;DHT22;21301;43.626;10.580;2022-11-22T17:15:18;10.40;99.90
35129;DHT22;21301;43.626;10.580;2022-11-22T17:17:44;10.50;99.90
35129;DHT22;21301;43.626;10.580;2022-11-22T17:20:10;10.30;99.90
35129;DHT22;21301;43.626;10.580;2022-11-22T17:22:36;10.30;99.90
35129;DHT22;21301;43.626;10.580;2022-11-22T17:25:08;10.30;99.90
35129;DHT22;21301;43.626;10.580;2022-11-22T17:27:35;10.30;99.90
35129;DHT22;21301;43.626;10.580;2022-11-22T17:30:02;10.20;99.90
35129;DHT22;21301;43.626;10.580;2022-11-22T17:32:28;10.00;99.90
35129;DHT22;21301;43.626;10.580;2022-11-22T17:34:54;10.10;99.90
35129;DHT22;21301;43.626;10.580;2022-11-22T17:37:20;10.00;99.90
35129;DHT22;21301;43.626;10.580;2022-11-22T17:39:49;9.90;99.90
35129;DHT22;21301;43.626;10.580;2022-11-22T17:42:15;9.90;99.90
35129;DHT22;21301;43.626;10.580;2022-11-22T17:44:42;9.90;99.90
35129;DHT22;21301;43.626;10.580;2022-11-22T17:47:09;9.90;99.90
35129;DHT22;21301;43.626;10.580;2022-11-22T17:49:34;10.10;99.90
35129;DHT22;21301;43.626;10.580;2022-11-22T17:52:00;10.20;99.90
35129;DHT22;21301;43.626;10.580;2022-11-22T17:54:26;10.10;99.90